sensor_id;sensor_type;location;lat;lon;timestamp;pressure;altitude;pressure_sealevel;temperature;humidity
55755;BME280;41674;52.290;-1.474;2023-03-21T00:00:31;100525.11;;;8.53;100.00
55755;BME280;41674;52.290;-1.474;2023-03-21T00:03:00;100519.93;;;8.46;100.00
55755;BME280;41674;52.290;-1.474;2023-03-21T00:05:30;100517.67;;;9.56;100.00
55755;BME280;41674;52.290;-1.474;2023-03-21T00:07:59;100511.96;;;9.69;100.00
55755;BME280;41674;52.290;-1.474;2023-03-21T00:10:29;100512.50;;;9.37;99.70
55755;BME280;41674;52.290;-1.474;2023-03-21T00:12:58;100510.28;;;9.97;99.15
55755;BME280;41674;52.290;-1.474;2023-03-21T00:15:28;100506.48;;;9.57;99.85
55755;BME280;41674;52.290;-1.474;2023-03-21T00:17:58;100502.32;;;9.14;100.00
55755;BME280;41674;52.290;-1.474;2023-03-21T00:20:27;100496.98;;;9.38;100.00
55755;BME280;41674;52.290;-1.474;2023-03-21T00:22:57;100500.24;;;8.73;100.00
55755;BME280;41674;52.290;-1.474;2023-03-21T00:25:26;100492.59;;;9.32;100.00
55755;BME280;41674;52.290;-1.474;2023-03-21T00:27:56;100484.57;;;9.21;100.00
55755;BME280;41674;52.290;-1.474;2023-03-21T00:30:26;100476.06;;;9.36;100.00
55755;BME280;41674;52.290;-1.474;2023-03-21T00:32:55;100470.24;;;9.48;98.35
55755;BME280;41674;52.290;-1.474;2023-03-21T00:35:25;100472.94;;;9.60;98.42
55755;BME280;41674;52.290;-1.474;2023-03-21T00:37:54;100470.77;;;9.52;99.31
55755;BME280;41674;52.290;-1.474;2023-03-21T00:40:24;100467.66;;;9.08;100.00
55755;BME280;41674;52.290;-1.474;2023-03-21T00:42:54;100464.91;;;8.34;100.00
55755;BME280;41674;52.290;-1.474;2023-03-21T00:45:23;100460.11;;;8.99;100.00
55755;BME280;41674;52.290;-1.474;2023-03-21T00:47:53;100459.42;;;9.12;100.00
55755;BME280;41674;52.290;-1.474;2023-03-21T00:50:23;100457.02;;;8.36;100.00
55755;BME280;41674;52.290;-1.474;2023-03-21T00:52:52;100452.96;;;9.06;100.00
55755;BME280;41674;52.290;-1.474;2023-03-21T00:55:22;100445.72;;;8.11;100.00
55755;BME280;41674;52.290;-1.474;2023-03-21T00:57:51;100440.79;;;8.62;100.00
55755;BME280;41674;52.290;-1.474;2023-03-21T01:00:21;100434.99;;;8.55;100.00
55755;BME280;41674;52.290;-1.474;2023-03-21T01:02:50;100427.12;;;8.30;100.00
55755;BME280;41674;52.290;-1.474;2023-03-21T01:05:20;100431.70;;;7.97;100.00
55755;BME280;41674;52.290;-1.474;2023-03-21T01:07:50;100423.23;;;8.48;100.00
55755;BME280;41674;52.290;-1.474;2023-03-21T01:10:19;100413.95;;;9.65;100.00
55755;BME280;41674;52.290;-1.474;2023-03-21T01:12:49;100421.62;;;8.26;100.00
55755;BME280;41674;52.290;-1.474;2023-03-21T01:15:19;100420.20;;;8.69;100.00
55755;BME280;41674;52.290;-1.474;2023-03-21T01:17:48;100408.91;;;8.60;100.00
55755;BME280;41674;52.290;-1.474;2023-03-21T01:20:18;100401.21;;;8.26;100.00
55755;BME280;41674;52.290;-1.474;2023-03-21T01:22:47;100393.37;;;8.70;100.00
55755;BME280;41674;52.290;-1.474;2023-03-21T01:25:17;100388.78;;;8.24;100.00
55755;BME280;41674;52.290;-1.474;2023-03-21T01:27:46;100393.79;;;8.44;100.00
55755;BME280;41674;52.290;-1.474;2023-03-21T01:30:16;100386.97;;;8.42;100.00
55755;BME280;41674;52.290;-1.474;2023-03-21T01:32:46;100388.40;;;8.76;100.00
55755;BME280;41674;52.290;-1.474;2023-03-21T01:35:15;100382.94;;;8.93;100.00
55755;BME280;41674;52.290;-1.474;2023-03-21T01:37:45;100381.67;;;7.98;100.00
55755;BME280;41674;52.290;-1.474;2023-03-21T01:40:16;100376.93;;;8.51;100.00
55755;BME280;41674;52.290;-1.474;2023-03-21T01:42:44;100371.16;;;8.46;100.00
55755;BME280;41674;52.290;-1.474;2023-03-21T01:47:43;100374.15;;;8.11;100.00
55755;BME280;41674;52.290;-1.474;2023-03-21T01:50:13;100367.11;;;7.65;100.00
55755;BME280;41674;52.290;-1.474;2023-03-21T01:52:43;100371.01;;;7.75;100.00
55755;BME280;41674;52.290;-1.474;2023-03-21T01:55:13;100371.79;;;7.56;100.00
55755;BME280;41674;52.290;-1.474;2023-03-21T01:57:45;100366.94;;;7.99;100.00
55755;BME280;41674;52.290;-1.474;2023-03-21T02:00:12;100366.18;;;7.70;100.00
55755;BME280;41674;52.290;-1.474;2023-03-21T02:02:42;100361.40;;;8.27;100.00
55755;BME280;41674;52.290;-1.474;2023-03-21T02:05:10;100351.19;;;8.02;100.00
55755;BME280;41674;52.290;-1.474;2023-03-21T02:07:40;100350.12;;;7.57;100.00
55755;BME280;41674;52.290;-1.474;2023-03-21T02:10:13;100349.30;;;7.59;100.00
55755;BME280;41674;52.290;-1.474;2023-03-21T02:12:39;100344.82;;;8.00;100.00
55755;BME280;41674;52.290;-1.474;2023-03-21T02:15:10;100342.63;;;7.67;100.00
55755;BME280;41674;52.290;-1.474;2023-03-21T02:17:42;100335.88;;;7.44;100.00
55755;BME280;41674;52.290;-1.474;2023-03-21T02:20:30;100330.39;;;7.12;100.00
55755;BME280;41674;52.290;-1.474;2023-03-21T02:22:50;100330.20;;;7.48;100.00
55755;BME280;41674;52.290;-1.474;2023-03-21T02:27:38;100324.44;;;7.52;100.00
55755;BME280;41674;52.290;-1.474;2023-03-21T02:30:25;100323.90;;;7.10;100.00
55755;BME280;41674;52.290;-1.474;2023-03-21T02:32:47;100318.39;;;7.38;100.00
55755;BME280;41674;52.290;-1.474;2023-03-21T02:35:20;100316.16;;;7.01;100.00
55755;BME280;41674;52.290;-1.474;2023-03-21T02:37:39;100314.96;;;7.17;100.00
55755;BME280;41674;52.290;-1.474;2023-03-21T02:40:09;100316.24;;;7.68;100.00
55755;BME280;41674;52.290;-1.474;2023-03-21T02:42:42;100311.04;;;7.39;100.00
55755;BME280;41674;52.290;-1.474;2023-03-21T02:45:08;100310.44;;;7.10;100.00
55755;BME280;41674;52.290;-1.474;2023-03-21T02:47:37;100304.03;;;6.64;100.00
55755;BME280;41674;52.290;-1.474;2023-03-21T02:50:08;100294.58;;;6.86;100.00
55755;BME280;41674;52.290;-1.474;2023-03-21T02:52:35;100302.35;;;7.27;100.00
55755;BME280;41674;52.290;-1.474;2023-03-21T02:55:03;100307.55;;;7.61;100.00
55755;BME280;41674;52.290;-1.474;2023-03-21T02:57:32;100292.78;;;6.88;100.00
55755;BME280;41674;52.290;-1.474;2023-03-21T03:00:02;100294.66;;;7.21;100.00
55755;BME280;41674;52.290;-1.474;2023-03-21T03:02:31;100291.16;;;7.19;100.00
55755;BME280;41674;52.290;-1.474;2023-03-21T03:05:00;100280.13;;;7.05;100.00
55755;BME280;41674;52.290;-1.474;2023-03-21T03:07:36;100285.16;;;7.15;100.00
55755;BME280;41674;52.290;-1.474;2023-03-21T03:10:09;100283.51;;;7.67;100.00
55755;BME280;41674;52.290;-1.474;2023-03-21T03:12:34;100281.38;;;7.68;100.00
55755;BME280;41674;52.290;-1.474;2023-03-21T03:15:05;100273.76;;;7.74;100.00
55755;BME280;41674;52.290;-1.474;2023-03-21T03:17:38;100265.72;;;7.27;100.00
55755;BME280;41674;52.290;-1.474;2023-03-21T03:20:16;100267.89;;;7.70;100.00
55755;BME280;41674;52.290;-1.474;2023-03-21T03:22:35;100274.99;;;7.84;100.00
55755;BME280;41674;52.290;-1.474;2023-03-21T03:25:00;100271.19;;;7.45;100.00
55755;BME280;41674;52.290;-1.474;2023-03-21T03:27:29;100263.40;;;7.24;100.00
55755;BME280;41674;52.290;-1.474;2023-03-21T03:29:58;100262.59;;;7.26;100.00
55755;BME280;41674;52.290;-1.474;2023-03-21T03:32:31;100256.89;;;7.95;100.00
55755;BME280;41674;52.290;-1.474;2023-03-21T03:34:56;100258.44;;;7.19;100.00
55755;BME280;41674;52.290;-1.474;2023-03-21T03:37:28;100256.17;;;7.49;100.00
55755;BME280;41674;52.290;-1.474;2023-03-21T03:39:59;100252.48;;;7.65;100.00
55755;BME280;41674;52.290;-1.474;2023-03-21T03:42:29;100247.62;;;7.88;100.00
55755;BME280;41674;52.290;-1.474;2023-03-21T03:44:54;100247.37;;;7.25;100.00
55755;BME280;41674;52.290;-1.474;2023-03-21T03:47:27;100246.65;;;7.32;100.00
55755;BME280;41674;52.290;-1.474;2023-03-21T03:49:59;100250.14;;;7.58;100.00
55755;BME280;41674;52.290;-1.474;2023-03-21T03:52:25;100252.18;;;7.25;100.00
55755;BME280;41674;52.290;-1.474;2023-03-21T03:54:52;100246.77;;;7.44;100.00
55755;BME280;41674;52.290;-1.474;2023-03-21T03:57:24;100246.50;;;6.78;100.00
55755;BME280;41674;52.290;-1.474;2023-03-21T03:59:51;100246.39;;;7.47;100.00
55755;BME280;41674;52.290;-1.474;2023-03-21T04:02:21;100240.00;;;7.33;100.00
55755;BME280;41674;52.290;-1.474;2023-03-21T04:04:51;100236.42;;;6.97;100.00
55755;BME280;41674;52.290;-1.474;2023-03-21T04:07:20;100232.59;;;7.47;100.00
55755;BME280;41674;52.290;-1.474;2023-03-21T04:09:50;100231.92;;;7.74;100.00
55755;BME280;41674;52.290;-1.474;2023-03-21T04:12:19;100229.08;;;7.58;100.00
55755;BME280;41674;52.290;-1.474;2023-03-21T04:14:49;100227.04;;;6.97;100.00
55755;BME280;41674;52.290;-1.474;2023-03-21T04:17:18;100226.60;;;7.28;100.00
55755;BME280;41674;52.290;-1.474;2023-03-21T04:19:48;100220.41;;;6.54;100.00
55755;BME280;41674;52.290;-1.474;2023-03-21T04:22:17;100213.41;;;6.72;100.00
55755;BME280;41674;52.290;-1.474;2023-03-21T04:24:47;100217.33;;;7.41;100.00
55755;BME280;41674;52.290;-1.474;2023-03-21T04:27:16;100213.42;;;7.18;100.00
55755;BME280;41674;52.290;-1.474;2023-03-21T04:29:46;100209.79;;;7.77;100.00
55755;BME280;41674;52.290;-1.474;2023-03-21T04:32:16;100204.57;;;7.35;100.00
55755;BME280;41674;52.290;-1.474;2023-03-21T04:34:46;100199.43;;;7.30;100.00
55755;BME280;41674;52.290;-1.474;2023-03-21T04:37:15;100195.63;;;7.35;100.00
55755;BME280;41674;52.290;-1.474;2023-03-21T04:39:45;100188.81;;;6.87;100.00
55755;BME280;41674;52.290;-1.474;2023-03-21T04:42:16;100191.71;;;7.21;100.00
55755;BME280;41674;52.290;-1.474;2023-03-21T04:44:44;100190.53;;;7.16;100.00
55755;BME280;41674;52.290;-1.474;2023-03-21T04:47:14;100190.84;;;7.29;100.00
55755;BME280;41674;52.290;-1.474;2023-03-21T04:49:43;100180.97;;;7.09;100.00
55755;BME280;41674;52.290;-1.474;2023-03-21T04:52:13;100180.09;;;7.20;100.00
55755;BME280;41674;52.290;-1.474;2023-03-21T04:54:42;100168.49;;;8.21;100.00
55755;BME280;41674;52.290;-1.474;2023-03-21T04:57:12;100165.80;;;7.75;100.00
55755;BME280;41674;52.290;-1.474;2023-03-21T04:59:41;100163.31;;;7.40;100.00
55755;BME280;41674;52.290;-1.474;2023-03-21T05:02:11;100147.74;;;7.80;100.00
55755;BME280;41674;52.290;-1.474;2023-03-21T05:04:41;100149.20;;;7.53;100.00
55755;BME280;41674;52.290;-1.474;2023-03-21T05:07:11;100156.90;;;7.62;100.00
55755;BME280;41674;52.290;-1.474;2023-03-21T05:09:40;100143.13;;;7.61;100.00
55755;BME280;41674;52.290;-1.474;2023-03-21T05:12:10;100141.05;;;7.79;100.00
55755;BME280;41674;52.290;-1.474;2023-03-21T05:14:39;100132.51;;;7.64;100.00
55755;BME280;41674;52.290;-1.474;2023-03-21T05:17:09;100144.47;;;7.45;100.00
55755;BME280;41674;52.290;-1.474;2023-03-21T05:19:38;100142.17;;;7.39;100.00
55755;BME280;41674;52.290;-1.474;2023-03-21T05:22:10;100132.79;;;7.83;100.00
55755;BME280;41674;52.290;-1.474;2023-03-21T05:24:38;100141.13;;;8.01;100.00
55755;BME280;41674;52.290;-1.474;2023-03-21T05:27:07;100137.98;;;7.60;100.00
55755;BME280;41674;52.290;-1.474;2023-03-21T05:29:37;100131.46;;;7.70;100.00
55755;BME280;41674;52.290;-1.474;2023-03-21T05:32:06;100128.48;;;7.43;100.00
55755;BME280;41674;52.290;-1.474;2023-03-21T05:34:36;100124.93;;;7.47;100.00
55755;BME280;41674;52.290;-1.474;2023-03-21T05:37:06;100116.85;;;7.81;100.00
55755;BME280;41674;52.290;-1.474;2023-03-21T05:39:35;100113.73;;;7.83;100.00
55755;BME280;41674;52.290;-1.474;2023-03-21T05:42:05;100119.68;;;6.93;100.00
55755;BME280;41674;52.290;-1.474;2023-03-21T05:44:34;100118.68;;;6.99;100.00
55755;BME280;41674;52.290;-1.474;2023-03-21T05:47:04;100118.94;;;6.82;100.00
55755;BME280;41674;52.290;-1.474;2023-03-21T05:49:34;100122.03;;;7.23;100.00
55755;BME280;41674;52.290;-1.474;2023-03-21T05:52:04;100117.59;;;7.41;100.00
55755;BME280;41674;52.290;-1.474;2023-03-21T05:54:33;100117.74;;;7.39;100.00
55755;BME280;41674;52.290;-1.474;2023-03-21T05:57:03;100115.53;;;7.14;100.00
55755;BME280;41674;52.290;-1.474;2023-03-21T05:59:32;100108.12;;;7.32;100.00
55755;BME280;41674;52.290;-1.474;2023-03-21T06:02:02;100120.69;;;6.84;100.00
55755;BME280;41674;52.290;-1.474;2023-03-21T06:04:31;100114.00;;;7.38;100.00
55755;BME280;41674;52.290;-1.474;2023-03-21T06:07:01;100113.93;;;7.52;100.00
55755;BME280;41674;52.290;-1.474;2023-03-21T06:09:31;100113.79;;;6.81;100.00
55755;BME280;41674;52.290;-1.474;2023-03-21T06:12:00;100114.90;;;7.30;100.00
55755;BME280;41674;52.290;-1.474;2023-03-21T06:14:30;100113.57;;;6.84;100.00
55755;BME280;41674;52.290;-1.474;2023-03-21T06:16:59;100115.15;;;7.10;100.00
55755;BME280;41674;52.290;-1.474;2023-03-21T06:19:29;100107.48;;;7.64;100.00
55755;BME280;41674;52.290;-1.474;2023-03-21T06:21:58;100102.29;;;7.21;100.00
55755;BME280;41674;52.290;-1.474;2023-03-21T06:24:28;100097.21;;;7.72;100.00
55755;BME280;41674;52.290;-1.474;2023-03-21T06:26:57;100106.81;;;7.40;100.00
55755;BME280;41674;52.290;-1.474;2023-03-21T06:29:28;100098.64;;;7.77;100.00
55755;BME280;41674;52.290;-1.474;2023-03-21T06:31:57;100098.47;;;8.09;100.00
55755;BME280;41674;52.290;-1.474;2023-03-21T06:34:27;100097.45;;;8.00;100.00
55755;BME280;41674;52.290;-1.474;2023-03-21T06:36:56;100098.13;;;7.82;100.00
55755;BME280;41674;52.290;-1.474;2023-03-21T06:39:26;100099.74;;;7.74;100.00
55755;BME280;41674;52.290;-1.474;2023-03-21T06:41:55;100109.24;;;7.60;100.00
55755;BME280;41674;52.290;-1.474;2023-03-21T06:44:25;100110.26;;;7.54;100.00
55755;BME280;41674;52.290;-1.474;2023-03-21T06:46:54;100105.47;;;7.89;100.00
55755;BME280;41674;52.290;-1.474;2023-03-21T06:49:24;100114.79;;;7.68;100.00
55755;BME280;41674;52.290;-1.474;2023-03-21T06:51:53;100121.13;;;7.56;100.00
55755;BME280;41674;52.290;-1.474;2023-03-21T06:54:23;100117.17;;;8.58;100.00
55755;BME280;41674;52.290;-1.474;2023-03-21T06:56:53;100119.84;;;7.93;100.00
55755;BME280;41674;52.290;-1.474;2023-03-21T06:59:22;100119.16;;;7.88;100.00
55755;BME280;41674;52.290;-1.474;2023-03-21T07:01:52;100121.01;;;8.55;100.00
55755;BME280;41674;52.290;-1.474;2023-03-21T07:04:21;100117.02;;;8.41;100.00
55755;BME280;41674;52.290;-1.474;2023-03-21T07:06:51;100115.78;;;8.68;100.00
55755;BME280;41674;52.290;-1.474;2023-03-21T07:09:20;100112.88;;;8.14;100.00
55755;BME280;41674;52.290;-1.474;2023-03-21T07:11:50;100108.27;;;8.52;100.00
55755;BME280;41674;52.290;-1.474;2023-03-21T07:14:20;100103.94;;;7.86;100.00
55755;BME280;41674;52.290;-1.474;2023-03-21T07:16:49;100101.49;;;7.88;100.00
55755;BME280;41674;52.290;-1.474;2023-03-21T07:19:19;100094.96;;;7.94;100.00
55755;BME280;41674;52.290;-1.474;2023-03-21T07:21:48;100098.24;;;8.28;100.00
55755;BME280;41674;52.290;-1.474;2023-03-21T07:24:18;100101.77;;;7.48;100.00
55755;BME280;41674;52.290;-1.474;2023-03-21T07:26:48;100101.25;;;8.01;100.00
55755;BME280;41674;52.290;-1.474;2023-03-21T07:29:17;100104.81;;;8.24;100.00
55755;BME280;41674;52.290;-1.474;2023-03-21T07:31:47;100108.41;;;8.56;100.00
55755;BME280;41674;52.290;-1.474;2023-03-21T07:34:17;100112.08;;;8.10;100.00
55755;BME280;41674;52.290;-1.474;2023-03-21T07:36:46;100111.95;;;8.44;100.00
55755;BME280;41674;52.290;-1.474;2023-03-21T07:39:16;100106.29;;;8.51;100.00
55755;BME280;41674;52.290;-1.474;2023-03-21T07:41:45;100107.89;;;8.77;100.00
55755;BME280;41674;52.290;-1.474;2023-03-21T07:44:15;100106.33;;;8.84;100.00
55755;BME280;41674;52.290;-1.474;2023-03-21T07:46:45;100105.72;;;8.63;100.00
55755;BME280;41674;52.290;-1.474;2023-03-21T07:49:14;100097.91;;;8.87;100.00
55755;BME280;41674;52.290;-1.474;2023-03-21T07:51:44;100105.97;;;9.12;100.00
55755;BME280;41674;52.290;-1.474;2023-03-21T07:54:13;100103.55;;;8.60;100.00
55755;BME280;41674;52.290;-1.474;2023-03-21T07:56:43;100102.23;;;8.86;100.00
55755;BME280;41674;52.290;-1.474;2023-03-21T07:59:12;100098.42;;;9.07;100.00
55755;BME280;41674;52.290;-1.474;2023-03-21T08:01:42;100098.07;;;8.91;100.00
55755;BME280;41674;52.290;-1.474;2023-03-21T08:04:12;100097.49;;;8.49;100.00
55755;BME280;41674;52.290;-1.474;2023-03-21T08:06:41;100097.80;;;8.76;100.00
55755;BME280;41674;52.290;-1.474;2023-03-21T08:09:11;100102.61;;;8.94;100.00
55755;BME280;41674;52.290;-1.474;2023-03-21T08:11:40;100104.72;;;8.92;100.00
55755;BME280;41674;52.290;-1.474;2023-03-21T08:14:10;100102.56;;;8.86;100.00
55755;BME280;41674;52.290;-1.474;2023-03-21T08:16:40;100085.50;;;8.61;100.00
55755;BME280;41674;52.290;-1.474;2023-03-21T08:19:09;100089.19;;;8.97;100.00
55755;BME280;41674;52.290;-1.474;2023-03-21T08:21:39;100079.76;;;8.64;100.00
55755;BME280;41674;52.290;-1.474;2023-03-21T08:24:08;100073.06;;;8.71;100.00
55755;BME280;41674;52.290;-1.474;2023-03-21T08:26:38;100072.36;;;8.60;100.00
55755;BME280;41674;52.290;-1.474;2023-03-21T08:29:07;100071.81;;;8.13;100.00
55755;BME280;41674;52.290;-1.474;2023-03-21T08:31:38;100070.06;;;8.38;100.00
55755;BME280;41674;52.290;-1.474;2023-03-21T08:34:07;100068.21;;;8.50;100.00
55755;BME280;41674;52.290;-1.474;2023-03-21T08:36:36;100077.77;;;8.87;100.00
55755;BME280;41674;52.290;-1.474;2023-03-21T08:39:06;100082.94;;;8.09;100.00
55755;BME280;41674;52.290;-1.474;2023-03-21T08:41:38;100079.42;;;8.34;100.00
55755;BME280;41674;52.290;-1.474;2023-03-21T08:44:05;100080.73;;;8.10;100.00
55755;BME280;41674;52.290;-1.474;2023-03-21T08:46:35;100080.71;;;8.05;100.00
55755;BME280;41674;52.290;-1.474;2023-03-21T08:49:04;100079.19;;;8.16;100.00
55755;BME280;41674;52.290;-1.474;2023-03-21T08:51:34;100078.16;;;7.68;100.00
55755;BME280;41674;52.290;-1.474;2023-03-21T08:54:04;100071.43;;;8.78;100.00
55755;BME280;41674;52.290;-1.474;2023-03-21T08:56:33;100075.19;;;9.05;100.00
55755;BME280;41674;52.290;-1.474;2023-03-21T08:59:02;100074.08;;;8.74;100.00
55755;BME280;41674;52.290;-1.474;2023-03-21T09:01:32;100077.53;;;8.68;100.00
55755;BME280;41674;52.290;-1.474;2023-03-21T09:04:02;100074.15;;;8.89;100.00
55755;BME280;41674;52.290;-1.474;2023-03-21T09:06:32;100072.61;;;8.83;100.00
55755;BME280;41674;52.290;-1.474;2023-03-21T09:09:01;100075.58;;;9.13;100.00
55755;BME280;41674;52.290;-1.474;2023-03-21T09:11:30;100076.50;;;9.03;100.00
55755;BME280;41674;52.290;-1.474;2023-03-21T09:14:00;100081.31;;;9.18;100.00
55755;BME280;41674;52.290;-1.474;2023-03-21T09:16:30;100076.62;;;9.55;100.00
55755;BME280;41674;52.290;-1.474;2023-03-21T09:18:59;100079.36;;;9.52;100.00
55755;BME280;41674;52.290;-1.474;2023-03-21T09:21:29;100076.78;;;10.22;100.00
55755;BME280;41674;52.290;-1.474;2023-03-21T09:23:58;100069.22;;;10.03;100.00
55755;BME280;41674;52.290;-1.474;2023-03-21T09:26:28;100077.05;;;10.33;100.00
55755;BME280;41674;52.290;-1.474;2023-03-21T09:28:58;100071.31;;;9.93;100.00
55755;BME280;41674;52.290;-1.474;2023-03-21T09:31:27;100078.12;;;9.59;100.00
55755;BME280;41674;52.290;-1.474;2023-03-21T09:33:57;100080.90;;;9.96;100.00
55755;BME280;41674;52.290;-1.474;2023-03-21T09:36:26;100079.49;;;9.64;100.00
55755;BME280;41674;52.290;-1.474;2023-03-21T09:38:55;100072.84;;;9.36;100.00
55755;BME280;41674;52.290;-1.474;2023-03-21T09:41:33;100068.57;;;9.57;100.00
55755;BME280;41674;52.290;-1.474;2023-03-21T09:44:04;100072.47;;;10.46;100.00
55755;BME280;41674;52.290;-1.474;2023-03-21T09:46:30;100068.84;;;10.00;100.00
55755;BME280;41674;52.290;-1.474;2023-03-21T09:48:57;100060.86;;;10.70;100.00
55755;BME280;41674;52.290;-1.474;2023-03-21T09:51:26;100058.11;;;10.34;100.00
55755;BME280;41674;52.290;-1.474;2023-03-21T09:53:55;100051.73;;;10.20;100.00
55755;BME280;41674;52.290;-1.474;2023-03-21T09:56:23;100047.41;;;10.39;100.00
55755;BME280;41674;52.290;-1.474;2023-03-21T09:58:55;100042.33;;;9.86;100.00
55755;BME280;41674;52.290;-1.474;2023-03-21T10:01:25;100048.80;;;9.59;100.00
55755;BME280;41674;52.290;-1.474;2023-03-21T10:03:51;100041.77;;;9.21;100.00
55755;BME280;41674;52.290;-1.474;2023-03-21T10:06:21;100041.58;;;10.07;100.00
55755;BME280;41674;52.290;-1.474;2023-03-21T10:08:50;100047.78;;;9.65;100.00
55755;BME280;41674;52.290;-1.474;2023-03-21T10:11:23;100050.78;;;9.79;100.00
55755;BME280;41674;52.290;-1.474;2023-03-21T10:13:52;100047.09;;;10.21;99.61
55755;BME280;41674;52.290;-1.474;2023-03-21T10:16:23;100045.93;;;9.57;100.00
55755;BME280;41674;52.290;-1.474;2023-03-21T10:18:49;100044.67;;;9.90;99.74
55755;BME280;41674;52.290;-1.474;2023-03-21T10:21:20;100046.73;;;10.76;98.39
55755;BME280;41674;52.290;-1.474;2023-03-21T10:23:48;100047.10;;;9.88;99.67
55755;BME280;41674;52.290;-1.474;2023-03-21T10:26:18;100045.26;;;10.14;99.58
55755;BME280;41674;52.290;-1.474;2023-03-21T10:28:48;100037.69;;;9.97;99.39
55755;BME280;41674;52.290;-1.474;2023-03-21T10:31:19;100037.12;;;9.76;100.00
55755;BME280;41674;52.290;-1.474;2023-03-21T10:33:47;100038.01;;;10.69;95.35
55755;BME280;41674;52.290;-1.474;2023-03-21T10:36:18;100036.98;;;10.39;94.41
55755;BME280;41674;52.290;-1.474;2023-03-21T10:38:48;100026.48;;;10.60;92.48
55755;BME280;41674;52.290;-1.474;2023-03-21T10:41:15;100026.37;;;10.94;90.54
55755;BME280;41674;52.290;-1.474;2023-03-21T10:43:44;100022.61;;;10.82;91.16
55755;BME280;41674;52.290;-1.474;2023-03-21T10:46:17;100020.94;;;11.66;90.47
55755;BME280;41674;52.290;-1.474;2023-03-21T10:48:44;100029.35;;;11.15;91.44
55755;BME280;41674;52.290;-1.474;2023-03-21T10:51:18;100026.09;;;10.85;90.53
55755;BME280;41674;52.290;-1.474;2023-03-21T10:53:49;100019.88;;;11.50;87.17
55755;BME280;41674;52.290;-1.474;2023-03-21T10:56:12;100024.70;;;11.36;87.97
55755;BME280;41674;52.290;-1.474;2023-03-21T10:58:44;100024.70;;;11.42;87.61
55755;BME280;41674;52.290;-1.474;2023-03-21T11:01:23;100029.98;;;10.73;89.31
55755;BME280;41674;52.290;-1.474;2023-03-21T11:03:42;100031.53;;;10.81;90.75
55755;BME280;41674;52.290;-1.474;2023-03-21T11:06:16;100026.55;;;10.99;87.55
55755;BME280;41674;52.290;-1.474;2023-03-21T11:08:44;100017.88;;;11.04;89.70
55755;BME280;41674;52.290;-1.474;2023-03-21T11:11:10;100018.56;;;11.32;87.24
55755;BME280;41674;52.290;-1.474;2023-03-21T11:13:41;100014.42;;;11.42;85.76
55755;BME280;41674;52.290;-1.474;2023-03-21T11:16:10;100027.52;;;11.78;85.63
55755;BME280;41674;52.290;-1.474;2023-03-21T11:18:40;100023.46;;;11.49;86.70
55755;BME280;41674;52.290;-1.474;2023-03-21T11:21:09;100021.51;;;11.78;87.76
55755;BME280;41674;52.290;-1.474;2023-03-21T11:23:40;100024.42;;;11.81;88.75
55755;BME280;41674;52.290;-1.474;2023-03-21T11:26:09;100036.61;;;12.37;82.37
55755;BME280;41674;52.290;-1.474;2023-03-21T11:28:38;100039.49;;;12.40;82.63
55755;BME280;41674;52.290;-1.474;2023-03-21T11:31:07;100033.51;;;11.98;83.97
55755;BME280;41674;52.290;-1.474;2023-03-21T11:33:37;100033.98;;;11.83;84.42
55755;BME280;41674;52.290;-1.474;2023-03-21T11:36:07;100039.76;;;11.59;84.34
55755;BME280;41674;52.290;-1.474;2023-03-21T11:38:37;100044.84;;;11.77;80.94
55755;BME280;41674;52.290;-1.474;2023-03-21T11:41:05;100046.90;;;11.57;81.88
55755;BME280;41674;52.290;-1.474;2023-03-21T11:43:36;100046.42;;;11.59;82.00
55755;BME280;41674;52.290;-1.474;2023-03-21T11:46:07;100052.12;;;10.57;85.85
55755;BME280;41674;52.290;-1.474;2023-03-21T11:48:37;100042.45;;;10.67;84.80
55755;BME280;41674;52.290;-1.474;2023-03-21T11:51:05;100044.70;;;10.47;85.28
55755;BME280;41674;52.290;-1.474;2023-03-21T11:53:38;100047.76;;;11.07;84.90
55755;BME280;41674;52.290;-1.474;2023-03-21T11:56:14;100027.00;;;11.67;81.44
55755;BME280;41674;52.290;-1.474;2023-03-21T11:58:36;100031.13;;;11.54;81.80
55755;BME280;41674;52.290;-1.474;2023-03-21T12:01:07;100021.65;;;11.44;80.08
55755;BME280;41674;52.290;-1.474;2023-03-21T12:03:40;100022.51;;;11.63;80.51
55755;BME280;41674;52.290;-1.474;2023-03-21T12:06:01;100012.50;;;11.66;79.65
55755;BME280;41674;52.290;-1.474;2023-03-21T12:08:37;100023.70;;;11.89;81.19
55755;BME280;41674;52.290;-1.474;2023-03-21T12:11:02;100025.79;;;11.67;83.65
55755;BME280;41674;52.290;-1.474;2023-03-21T12:13:39;100025.07;;;11.69;80.89
55755;BME280;41674;52.290;-1.474;2023-03-21T12:16:07;100009.84;;;11.66;80.69
55755;BME280;41674;52.290;-1.474;2023-03-21T12:18:42;100013.36;;;11.56;81.41
55755;BME280;41674;52.290;-1.474;2023-03-21T12:20:59;100020.89;;;11.21;83.02
55755;BME280;41674;52.290;-1.474;2023-03-21T12:23:34;100016.99;;;11.15;83.54
55755;BME280;41674;52.290;-1.474;2023-03-21T12:26:07;100016.15;;;10.97;84.71
55755;BME280;41674;52.290;-1.474;2023-03-21T12:28:34;100015.29;;;11.21;84.88
55755;BME280;41674;52.290;-1.474;2023-03-21T12:31:00;100003.85;;;11.33;81.62
55755;BME280;41674;52.290;-1.474;2023-03-21T12:33:32;100015.33;;;10.50;84.62
55755;BME280;41674;52.290;-1.474;2023-03-21T12:38:30;100017.75;;;10.65;89.09
55755;BME280;41674;52.290;-1.474;2023-03-21T12:41:04;100006.22;;;11.14;88.41
55755;BME280;41674;52.290;-1.474;2023-03-21T12:43:28;99992.44;;;12.15;84.06
55755;BME280;41674;52.290;-1.474;2023-03-21T12:45:54;99985.66;;;12.22;83.64
55755;BME280;41674;52.290;-1.474;2023-03-21T12:48:29;99984.47;;;12.23;82.02
55755;BME280;41674;52.290;-1.474;2023-03-21T12:50:53;99981.33;;;12.58;80.12
55755;BME280;41674;52.290;-1.474;2023-03-21T12:53:30;99979.64;;;13.24;78.81
55755;BME280;41674;52.290;-1.474;2023-03-21T12:55:50;99990.84;;;12.71;77.49
55755;BME280;41674;52.290;-1.474;2023-03-21T12:58:21;99988.98;;;11.80;80.28